Time;durP1;ratioP1;P1;durP2;ratioP2;P2;SDS_P1;SDS_P2;PMS_P1;PMS_P2;Temp;Humidity;BMP_temperature;BMP_pressure;BME280_temperature;BME280_humidity;BME280_pressure;Samples;Min_cycle;Max_cycle;Signal;HPM_P1;HPM_P2
2022/04/29 00:01:59;;;;;;;1.00;0.70;;;;;;;19.07;45.55;103132.25;5043035;28;20037;-45
2022/04/29 00:04:25;;;;;;;0.80;0.70;;;;;;;19.08;45.24;103126.78;5043219;28;20120;-48
2022/04/29 00:06:51;;;;;;;0.93;0.65;;;;;;;19.07;45.42;103133.13;5043546;28;20030;-48
2022/04/29 00:09:17;;;;;;;1.55;0.90;;;;;;;19.07;45.47;103122.34;5042766;28;20033;-49
2022/04/29 00:11:42;;;;;;;1.52;0.95;;;;;;;19.07;45.36;103124.16;5042914;28;20064;-52
2022/04/29 00:14:08;;;;;;;1.55;0.80;;;;;;;18.99;45.28;103111.28;5041592;28;20022;-50
2022/04/29 00:16:33;;;;;;;1.00;0.80;;;;;;;19.05;45.13;103118.91;5043335;28;20025;-49
2022/04/29 00:18:59;;;;;;;0.85;0.73;;;;;;;19.06;45.27;103117.06;5043093;28;20040;-49
2022/04/29 00:21:24;;;;;;;1.40;1.25;;;;;;;19.05;45.11;103115.34;5043187;28;20467;-50
2022/04/29 00:23:49;;;;;;;1.20;0.77;;;;;;;19.06;45.22;103117.91;5045275;28;20041;-48
2022/04/29 00:26:14;;;;;;;0.98;0.70;;;;;;;19.05;44.89;103116.22;5046948;28;20599;-48
2022/04/29 00:28:39;;;;;;;1.27;0.80;;;;;;;19.04;45.27;103110.94;5045836;28;20572;-46
2022/04/29 00:31:05;;;;;;;0.80;0.68;;;;;;;19.03;45.05;103110.09;5046467;28;20044;-49
2022/04/29 00:33:30;;;;;;;1.67;1.02;;;;;;;19.03;45.23;103104.69;5046479;28;20037;-51
2022/04/29 00:35:55;;;;;;;0.77;0.70;;;;;;;19.03;44.98;103096.59;5046347;28;20150;-50
2022/04/29 00:38:20;;;;;;;1.13;0.90;;;;;;;19.02;45.22;103097.56;5046388;28;20657;-51
2022/04/29 00:40:46;;;;;;;1.17;0.70;;;;;;;19.03;44.97;103093.03;5046213;28;20039;-49
2022/04/29 00:43:11;;;;;;;1.30;0.70;;;;;;;19.01;45.12;103095.84;5045243;28;20033;-48
2022/04/29 00:45:37;;;;;;;0.85;0.85;;;;;;;19.02;45.06;103092.16;5048325;28;20021;-49
2022/04/29 00:48:02;;;;;;;1.02;0.80;;;;;;;18.98;44.98;103087.97;5066373;28;20062;-45
2022/04/29 00:50:29;;;;;;;0.93;0.75;;;;;;;18.99;44.82;103087.03;5065117;28;20020;-46
2022/04/29 00:52:56;;;;;;;0.98;0.77;;;;;;;19.02;44.70;103084.06;5066180;28;20029;-50
2022/04/29 00:55:22;;;;;;;0.80;0.80;;;;;;;19.01;44.91;103076.13;5066037;28;20025;-47
2022/04/29 00:58:08;;;;;;;0.80;0.80;;;;;;;19.01;44.74;103068.03;5065323;28;20028;-49
2022/04/29 01:00:34;;;;;;;1.90;1.20;;;;;;;19.00;44.71;103072.56;5065648;28;20048;-46
2022/04/29 01:03:00;;;;;;;0.75;0.73;;;;;;;19.00;44.64;103067.19;5098503;28;20033;-46
2022/04/29 01:05:26;;;;;;;1.00;0.80;;;;;;;19.00;44.83;103072.56;5066066;28;20051;-52
2022/04/29 01:07:52;;;;;;;0.93;0.80;;;;;;;19.00;44.80;103077.97;5066122;28;20049;-47
2022/04/29 01:10:22;;;;;;;1.08;0.77;;;;;;;18.99;44.53;103070.84;5046214;28;20121;-47
2022/04/29 01:12:50;;;;;;;1.42;0.90;;;;;;;18.99;44.48;103070.84;5044926;28;20708;-49
2022/04/29 01:15:18;;;;;;;2.60;1.00;;;;;;;18.98;44.56;103072.66;5045723;28;20017;-47
2022/04/29 01:17:46;;;;;;;0.80;0.80;;;;;;;18.97;44.33;103076.34;5046021;28;20038;-49
2022/04/29 01:20:18;;;;;;;1.27;0.97;;;;;;;18.97;44.59;103073.66;5044571;28;20025;-48
2022/04/29 01:22:43;;;;;;;0.70;0.70;;;;;;;18.97;44.31;103065.56;5045776;28;20392;-48
2022/04/29 01:25:09;;;;;;;1.80;0.90;;;;;;;18.97;44.37;103062.88;5045704;28;20029;-49
2022/04/29 01:27:35;;;;;;;1.20;0.70;;;;;;;18.95;44.38;103055.88;5044978;28;20030;-47
2022/04/29 01:30:08;;;;;;;0.93;0.70;;;;;;;18.97;44.54;103053.91;5043527;28;20060;-50
2022/04/29 01:32:35;;;;;;;0.98;0.85;;;;;;;18.96;44.56;103044.97;5045435;28;20033;-48
2022/04/29 01:35:00;;;;;;;1.83;0.90;;;;;;;18.96;44.25;103046.81;5045343;28;20052;-47
2022/04/29 01:37:26;;;;;;;0.85;0.60;;;;;;;18.96;44.54;103044.13;5045302;28;20080;-47
2022/04/29 01:39:51;;;;;;;0.80;0.80;;;;;;;18.92;44.20;103032.72;5044930;28;20096;-46
2022/04/29 01:42:17;;;;;;;1.17;0.95;;;;;;;18.94;44.45;103037.97;5045321;28;20033;-46
2022/04/29 01:44:42;;;;;;;0.85;0.85;;;;;;;18.94;44.42;103043.38;5076147;28;20542;-47
2022/04/29 01:47:08;;;;;;;0.88;0.80;;;;;;;18.92;44.23;103038.09;5059868;28;20036;-46
2022/04/29 01:49:33;;;;;;;1.13;0.90;;;;;;;18.94;44.27;103037.97;5065356;28;20033;-48
2022/04/29 01:52:00;;;;;;;0.73;0.70;;;;;;;18.92;44.40;103038.09;5065225;28;20028;-46
2022/04/29 01:54:25;;;;;;;0.80;0.80;;;;;;;18.94;44.08;103046.06;5064975;28;20033;-47
2022/04/29 01:56:52;;;;;;;1.42;0.80;;;;;;;18.93;43.86;103047.03;5064970;28;20048;-47
2022/04/29 01:59:18;;;;;;;0.98;0.65;;;;;;;18.91;43.93;103047.16;5052676;28;20025;-48
2022/04/29 02:01:43;;;;;;;0.80;0.65;;;;;;;18.90;44.32;103047.28;5045004;28;20030;-45
2022/04/29 02:04:09;;;;;;;0.88;0.75;;;;;;;18.91;43.94;103051.72;5044918;28;20029;-48
2022/04/29 02:06:37;;;;;;;1.75;0.65;;;;;;;18.89;43.97;103042.88;5045043;28;20029;-47
2022/04/29 02:09:02;;;;;;;1.08;0.80;;;;;;;18.89;44.02;103042.88;5044622;28;20056;-48
2022/04/29 02:11:28;;;;;;;3.10;1.00;;;;;;;18.89;43.90;103035.63;5044873;28;20025;-46
2022/04/29 02:13:53;;;;;;;1.02;0.77;;;;;;;18.89;43.87;103041.03;5043480;28;20752;-46
2022/04/29 02:16:18;;;;;;;0.80;0.80;;;;;;;18.87;44.00;103032.22;5045018;28;20552;-49
2022/04/29 02:18:43;;;;;;;0.90;0.63;;;;;;;18.88;44.02;103033.91;5044698;28;20445;-48
2022/04/29 02:21:08;;;;;;;0.98;0.80;;;;;;;18.87;43.78;103023.25;5044534;28;20457;-46
2022/04/29 02:23:34;;;;;;;1.17;0.73;;;;;;;18.87;43.64;103020.56;5037780;28;20689;-50
2022/04/29 02:26:00;;;;;;;1.15;1.08;;;;;;;18.86;44.03;103014.31;5076422;28;20021;-45
2022/04/29 02:28:27;;;;;;;0.85;0.70;;;;;;;18.85;43.82;103017.97;5043374;28;20033;-47
2022/04/29 02:30:53;;;;;;;0.88;0.70;;;;;;;18.81;43.84;103018.31;5044601;28;20112;-46
2022/04/29 02:33:19;;;;;;;1.25;0.90;;;;;;;18.85;43.90;103034.13;5044424;28;20030;-47
2022/04/29 02:35:44;;;;;;;1.20;0.90;;;;;;;18.82;43.94;103023.63;5044272;28;20049;-51
2022/04/29 02:38:10;;;;;;;1.00;0.77;;;;;;;18.84;43.71;103023.50;5043867;28;20043;-51
2022/04/29 02:40:35;;;;;;;0.70;0.70;;;;;;;18.83;43.97;103028.03;5042954;28;20108;-53
2022/04/29 02:43:00;;;;;;;1.20;0.90;;;;;;;18.83;43.86;103019.94;5043068;28;20033;-51
2022/04/29 02:45:25;;;;;;;1.20;0.70;;;;;;;18.84;43.92;103020.78;5044181;28;20036;-51
2022/04/29 02:47:50;;;;;;;1.08;0.75;;;;;;;18.82;43.47;103030.81;5064040;28;20055;-51
2022/04/29 02:50:16;;;;;;;0.95;0.73;;;;;;;18.81;43.80;103021.88;5064142;28;20021;-48
2022/04/29 02:52:41;;;;;;;0.75;0.70;;;;;;;18.81;43.40;103011.09;5063747;28;20040;-52
2022/04/29 02:55:07;;;;;;;1.05;0.90;;;;;;;18.80;43.80;103025.56;5063806;28;20021;-49
2022/04/29 02:57:33;;;;;;;1.05;0.70;;;;;;;18.80;43.65;103028.25;5063488;28;20033;-51
2022/04/29 02:59:58;;;;;;;0.93;0.70;;;;;;;18.79;43.71;103026.53;5043663;28;20733;-53
2022/04/29 03:02:23;;;;;;;0.80;0.80;;;;;;;18.79;43.48;103023.00;5043748;28;20030;-51
2022/04/29 03:04:48;;;;;;;0.82;0.82;;;;;;;18.79;43.44;103018.44;5043870;28;20059;-49
2022/04/29 03:07:14;;;;;;;0.82;0.82;;;;;;;18.75;43.43;103018.81;5044003;28;20032;-50
2022/04/29 03:09:39;;;;;;;1.48;1.00;;;;;;;18.77;43.67;103022.22;5043436;28;20085;-52
2022/04/29 03:12:05;;;;;;;1.30;1.20;;;;;;;18.76;43.65;103024.06;5044008;28;20059;-52
2022/04/29 03:14:30;;;;;;;0.70;0.70;;;;;;;18.76;43.37;103025.91;5042614;28;20048;-50
2022/04/29 03:16:55;;;;;;;0.70;0.70;;;;;;;18.76;43.35;103021.38;5043887;28;20044;-50
2022/04/29 03:19:20;;;;;;;1.15;0.88;;;;;;;18.75;43.34;103021.50;5043973;28;20053;-52
2022/04/29 03:21:46;;;;;;;1.00;0.80;;;;;;;18.74;43.27;103026.03;5043760;28;20030;-51
2022/04/29 03:24:11;;;;;;;0.98;0.60;;;;;;;18.73;43.51;103019.78;5043569;28;20025;-45
2022/04/29 03:26:37;;;;;;;1.60;1.00;;;;;;;18.73;43.21;103013.50;5043757;28;20014;-47
2022/04/29 03:29:03;;;;;;;1.52;1.20;;;;;;;18.72;43.44;103003.72;5041940;28;20053;-48
2022/04/29 03:31:28;;;;;;;1.05;0.95;;;;;;;18.71;43.35;103005.56;5043679;28;20410;-46
2022/04/29 03:33:53;;;;;;;0.70;0.70;;;;;;;18.70;43.50;103006.53;5043309;28;20029;-45
2022/04/29 03:36:18;;;;;;;1.40;0.95;;;;;;;18.67;43.15;103005.88;5043131;28;20045;-45
2022/04/29 03:38:44;;;;;;;1.63;0.80;;;;;;;18.68;43.09;103011.13;5043060;28;20457;-47
2022/04/29 03:41:09;;;;;;;0.95;0.82;;;;;;;18.69;43.14;103014.69;5043330;28;20088;-47
2022/04/29 03:43:35;;;;;;;1.15;0.80;;;;;;;18.69;43.38;103014.69;5042304;28;20040;-49
2022/04/29 03:46:00;;;;;;;1.23;0.88;;;;;;;18.67;43.37;102995.09;5043375;28;20040;-49
2022/04/29 03:48:26;;;;;;;0.85;0.70;;;;;;;18.66;43.21;102994.25;5043577;28;20026;-50
2022/04/29 03:50:51;;;;;;;0.90;0.80;;;;;;;18.67;43.24;102993.25;5043416;28;20388;-49
2022/04/29 03:53:17;;;;;;;1.10;1.00;;;;;;;18.66;43.16;102990.69;5043038;28;20029;-46
2022/04/29 03:55:42;;;;;;;0.95;0.82;;;;;;;18.66;43.12;102996.06;5043193;28;20044;-47
2022/04/29 03:58:08;;;;;;;1.02;0.70;;;;;;;18.65;43.37;103005.16;5044126;28;20025;-47
2022/04/29 04:00:33;;;;;;;0.85;0.80;;;;;;;18.65;43.06;102991.69;5047287;28;20041;-49
2022/04/29 04:03:00;;;;;;;1.23;0.70;;;;;;;18.65;42.92;102999.75;5047398;28;20030;-46
2022/04/29 04:05:25;;;;;;;1.00;0.80;;;;;;;18.64;43.26;103000.72;5047132;28;20061;-47
2022/04/29 04:07:50;;;;;;;1.42;0.73;;;;;;;18.61;43.20;102999.13;5047005;28;20025;-46
2022/04/29 04:10:16;;;;;;;1.10;1.00;;;;;;;18.60;43.06;102997.38;5046973;28;20355;-48
2022/04/29 04:12:43;;;;;;;0.88;0.70;;;;;;;18.62;43.16;103003.53;5046021;28;20451;-47
2022/04/29 04:15:10;;;;;;;0.90;0.77;;;;;;;18.62;43.35;103003.53;5046991;28;20116;-48
2022/04/29 04:17:36;;;;;;;1.80;0.98;;;;;;;18.60;43.04;102999.22;5047110;28;20097;-47
2022/04/29 04:20:02;;;;;;;0.80;0.77;;;;;;;18.60;43.28;102997.38;5046405;28;20062;-48
2022/04/29 04:22:27;;;;;;;0.70;0.68;;;;;;;18.57;43.07;102975.22;5044120;28;20445;-48
2022/04/29 04:24:53;;;;;;;0.75;0.75;;;;;;;18.56;43.13;102970.78;5042211;28;20026;-48
2022/04/29 04:27:18;;;;;;;1.02;0.93;;;;;;;18.58;43.02;102975.09;5043534;28;20034;-48
2022/04/29 04:29:43;;;;;;;0.80;0.80;;;;;;;18.59;43.05;102975.97;5043378;28;20176;-50
2022/04/29 04:32:09;;;;;;;2.17;0.80;;;;;;;18.57;43.17;102973.38;5041597;28;20085;-50
2022/04/29 04:34:53;;;;;;;0.98;0.80;;;;;;;18.57;43.09;102973.38;5040832;28;20057;-48
2022/04/29 04:37:22;;;;;;;1.00;0.90;;;;;;;18.56;43.15;102982.41;5044185;28;20489;-45
2022/04/29 04:39:48;;;;;;;1.98;1.00;;;;;;;18.55;42.99;102985.25;5043104;28;20024;-50
2022/04/29 04:42:14;;;;;;;1.15;1.05;;;;;;;18.55;43.38;102999.56;5046586;28;20085;-47
2022/04/29 04:44:39;;;;;;;1.20;0.90;;;;;;;18.54;43.22;102999.69;5045300;28;20021;-47
2022/04/29 04:47:08;;;;;;;0.70;0.70;;;;;;;18.54;42.98;102997.00;5049833;28;20028;-49
2022/04/29 04:49:33;;;;;;;;;;;;;;;18.49;43.25;102995.50;5043769;28;20022;-46
2022/04/29 04:51:59;;;;;;;1.10;1.00;;;;;;;18.49;43.27;102989.28;5044612;28;19916;-44
2022/04/29 04:54:24;;;;;;;0.88;0.80;;;;;;;18.51;43.21;102997.22;5044585;28;20025;-48
2022/04/29 04:56:49;;;;;;;1.05;0.85;;;;;;;18.51;43.31;102994.53;5043062;28;20640;-46
2022/04/29 04:59:15;;;;;;;0.70;0.70;;;;;;;18.48;43.25;102999.19;5036449;28;20506;-49
2022/04/29 05:01:40;;;;;;;1.35;0.80;;;;;;;18.48;43.26;102993.81;5045600;28;20040;-48
2022/04/29 05:04:05;;;;;;;0.93;0.82;;;;;;;18.49;43.12;102995.50;5045046;28;20021;-47
2022/04/29 05:06:31;;;;;;;0.65;0.60;;;;;;;18.49;43.37;102989.28;5039438;28;20021;-49
2022/04/29 05:08:56;;;;;;;1.02;0.88;;;;;;;18.50;43.13;102990.97;5041944;28;20029;-46
2022/04/29 05:11:22;;;;;;;0.93;0.80;;;;;;;18.49;43.27;102987.44;5037165;28;20029;-48
2022/04/29 05:13:47;;;;;;;0.80;0.70;;;;;;;18.47;42.95;102992.06;5041868;28;20517;-46
2022/04/29 05:16:12;;;;;;;1.20;0.90;;;;;;;18.44;43.13;102992.31;5043984;28;20124;-46
2022/04/29 05:18:38;;;;;;;0.80;0.80;;;;;;;18.49;42.94;102995.50;5045060;28;20438;-50
2022/04/29 05:21:03;;;;;;;1.17;0.70;;;;;;;18.49;43.25;102994.66;5039484;28;20026;-49
2022/04/29 05:23:28;;;;;;;0.73;0.70;;;;;;;18.49;43.23;102994.66;5041690;28;20488;-47
2022/04/29 05:25:53;;;;;;;1.00;0.75;;;;;;;18.49;43.19;102991.97;5043132;28;20073;-47
2022/04/29 05:28:19;;;;;;;1.08;0.80;;;;;;;18.49;43.38;102990.13;5041122;28;20533;-45
2022/04/29 05:30:44;;;;;;;1.05;0.90;;;;;;;18.50;43.34;102999.06;5036754;28;20432;-50
2022/04/29 05:33:10;;;;;;;1.10;1.00;;;;;;;18.49;43.14;102995.50;5045152;28;20627;-49
2022/04/29 05:35:36;;;;;;;1.02;0.70;;;;;;;18.48;43.17;102996.50;5036258;28;20057;-51
2022/04/29 05:38:01;;;;;;;1.27;1.10;;;;;;;18.48;43.39;102993.81;5036604;28;20025;-46
2022/04/29 05:43:11;;;;;;;1.00;0.80;;;;;;;18.49;43.41;102986.56;5035584;28;20029;-50
2022/04/29 05:45:37;;;;;;;1.08;0.75;;;;;;;18.49;43.46;102978.50;5043610;28;20030;-50
2022/04/29 05:48:02;;;;;;;0.82;0.82;;;;;;;18.47;43.56;102975.91;5041296;28;20034;-52
2022/04/29 05:50:28;;;;;;;1.00;0.90;;;;;;;18.47;43.41;102975.03;5042008;28;20048;-50
2022/04/29 05:52:54;;;;;;;0.63;0.63;;;;;;;18.47;43.17;102973.19;5042733;28;20028;-48
2022/04/29 05:55:19;;;;;;;0.88;0.88;;;;;;;18.46;43.22;102981.41;5039288;28;20057;-46
2022/04/29 05:57:44;;;;;;;2.25;0.80;;;;;;;18.46;43.51;102976.88;5043483;28;20056;-46
2022/04/29 06:00:10;;;;;;;0.73;0.70;;;;;;;18.47;43.31;102981.28;5036370;28;20032;-47
2022/04/29 06:02:38;;;;;;;0.82;0.70;;;;;;;18.47;43.47;102978.59;5042464;28;20124;-51
2022/04/29 06:05:04;;;;;;;1.33;0.98;;;;;;;18.46;43.58;102984.97;5044775;28;20093;-49
2022/04/29 06:07:30;;;;;;;0.98;0.70;;;;;;;18.47;43.33;102988.50;5044820;28;20026;-49
2022/04/29 06:09:55;;;;;;;1.10;0.80;;;;;;;18.46;43.48;102989.50;5044417;28;20033;-49
2022/04/29 06:12:20;;;;;;;1.23;1.08;;;;;;;18.46;43.18;102992.19;5044319;28;20037;-46
2022/04/29 06:14:45;;;;;;;1.35;1.00;;;;;;;18.46;43.26;102984.97;5037590;28;20064;-47
2022/04/29 06:17:12;;;;;;;0.60;0.60;;;;;;;18.41;43.30;102983.59;5044099;28;20113;-48
2022/04/29 06:19:37;;;;;;;0.80;0.80;;;;;;;18.46;43.19;102992.19;5040807;28;20041;-48
2022/04/29 06:22:04;;;;;;;0.77;0.77;;;;;;;18.43;43.08;102989.72;5040460;28;20061;-47
2022/04/29 06:24:30;;;;;;;0.65;0.65;;;;;;;18.45;43.23;102996.72;5042929;28;20029;-53
2022/04/29 06:26:55;;;;;;;0.70;0.68;;;;;;;18.45;43.27;102995.84;5040529;28;20022;-54
2022/04/29 06:29:20;;;;;;;0.98;0.70;;;;;;;18.44;43.42;102983.38;5039925;28;20034;-50
2022/04/29 06:31:45;;;;;;;1.00;0.90;;;;;;;18.44;43.41;102984.22;5031943;28;20023;-50
2022/04/29 06:34:10;;;;;;;0.70;0.70;;;;;;;18.45;43.41;102996.72;5040902;28;20024;-50
2022/04/29 06:36:36;;;;;;;1.65;0.80;;;;;;;18.43;43.13;102998.66;5039518;28;20076;-51
2022/04/29 06:39:01;;;;;;;0.80;0.80;;;;;;;18.45;43.56;103001.25;5043509;28;20029;-53
2022/04/29 06:41:26;;;;;;;1.30;0.80;;;;;;;18.43;43.15;102998.66;5043695;28;20033;-51
2022/04/29 06:43:53;;;;;;;0.77;0.70;;;;;;;18.43;43.44;103001.34;5043102;28;20029;-51
2022/04/29 06:46:18;;;;;;;1.05;0.80;;;;;;;18.43;43.40;103000.47;5051909;28;20021;-50
2022/04/29 06:48:45;;;;;;;1.00;0.80;;;;;;;18.43;42.98;103001.34;5064033;28;20055;-51
2022/04/29 06:51:10;;;;;;;0.80;0.80;;;;;;;18.43;43.36;103003.19;5052416;28;20029;-51
2022/04/29 06:53:39;;;;;;;1.08;0.80;;;;;;;18.43;43.15;103000.47;5043954;28;20036;-49
2022/04/29 06:56:05;;;;;;;1.10;0.88;;;;;;;18.42;43.33;103007.72;5043275;28;20040;-50
2022/04/29 06:58:30;;;;;;;1.15;0.95;;;;;;;18.42;43.16;103010.41;5042839;28;20029;-50
2022/04/29 07:00:55;;;;;;;1.00;0.90;;;;;;;18.41;43.35;103003.31;5043468;28;20524;-50
2022/04/29 07:03:21;;;;;;;0.98;0.70;;;;;;;18.42;43.31;103006.84;5043874;28;20343;-52
2022/04/29 07:05:46;;;;;;;0.80;0.80;;;;;;;18.42;43.47;103012.25;5043438;28;20521;-50
2022/04/29 07:08:13;;;;;;;1.40;1.08;;;;;;;18.41;43.13;103016.78;5043265;28;20033;-52
2022/04/29 07:10:40;;;;;;;2.25;1.15;;;;;;;18.41;43.29;103016.78;5043350;28;20055;-52
2022/04/29 07:13:05;;;;;;;2.40;0.95;;;;;;;18.41;43.38;103015.91;5042560;28;20649;-52
2022/04/29 07:15:30;;;;;;;1.30;0.80;;;;;;;18.41;43.47;103013.22;5043575;28;20061;-51
2022/04/29 07:17:56;;;;;;;0.93;0.90;;;;;;;18.40;43.42;103012.38;5043778;28;20025;-46
2022/04/29 07:20:21;;;;;;;1.52;1.00;;;;;;;18.40;43.26;103011.50;5043896;28;20018;-51
2022/04/29 07:22:46;;;;;;;0.70;0.70;;;;;;;18.36;43.56;103010.88;5043221;28;20569;-50
2022/04/29 07:25:13;;;;;;;1.27;1.05;;;;;;;18.38;43.33;103016.13;5043403;28;20081;-47
2022/04/29 07:27:39;;;;;;;1.23;0.70;;;;;;;18.38;43.30;103014.28;5043367;28;20108;-50
2022/04/29 07:30:05;;;;;;;0.80;0.80;;;;;;;18.37;43.43;103009.91;5042890;28;20033;-50
2022/04/29 07:32:30;;;;;;;0.68;0.68;;;;;;;18.34;43.58;103011.94;5043283;28;20390;-53
2022/04/29 07:43:09;;;;;;;1.33;0.80;;;;;;;18.36;43.38;103013.56;5042036;28;20068;-49
2022/04/29 07:45:36;;;;;;;0.80;0.80;;;;;;;18.36;43.56;103010.88;5045047;28;20022;-50
2022/04/29 07:48:05;;;;;;;0.73;0.70;;;;;;;18.38;43.25;103013.44;5049350;28;20029;-47
2022/04/29 07:50:35;;;;;;;0.80;0.75;;;;;;;18.37;43.21;103015.28;5043495;28;20025;-48
2022/04/29 07:53:02;;;;;;;1.10;1.00;;;;;;;18.37;43.50;103015.28;5042785;28;20029;-50
2022/04/29 07:55:27;;;;;;;0.75;0.75;;;;;;;18.37;43.31;103023.34;5042913;28;20041;-52
2022/04/29 07:57:52;;;;;;;0.70;0.70;;;;;;;18.36;43.58;103023.47;5041967;28;20037;-49
2022/04/29 08:00:18;;;;;;;1.15;0.75;;;;;;;18.35;43.57;103022.63;5043182;28;20046;-50
2022/04/29 08:02:43;;;;;;;1.88;0.70;;;;;;;18.37;43.47;103017.13;5043176;28;20097;-50
2022/04/29 08:05:09;;;;;;;1.15;0.80;;;;;;;18.37;43.52;103019.81;5043199;28;20029;-49
2022/04/29 08:07:34;;;;;;;0.70;0.70;;;;;;;18.35;43.48;103024.44;5041945;28;20560;-51
2022/04/29 08:09:59;;;;;;;1.45;0.95;;;;;;;18.33;43.17;103023.69;5042585;28;20026;-52
2022/04/29 08:12:26;;;;;;;0.80;0.80;;;;;;;18.28;43.36;103012.41;5041583;28;20053;-50
2022/04/29 08:14:52;;;;;;;1.00;0.90;;;;;;;18.37;43.25;103026.06;5041848;28;20779;-50
2022/04/29 08:17:18;;;;;;;1.02;0.70;;;;;;;18.37;43.32;103025.19;5043288;28;20036;-49
2022/04/29 08:19:43;;;;;;;0.95;0.85;;;;;;;18.37;43.21;103026.06;5042796;28;20025;-51
2022/04/29 08:22:09;;;;;;;1.05;0.98;;;;;;;18.37;43.14;103023.34;5043194;28;20021;-48
2022/04/29 08:24:34;;;;;;;1.10;0.82;;;;;;;18.39;43.26;103024.13;5042769;28;20466;-52
2022/04/29 08:26:59;;;;;;;1.67;1.10;;;;;;;18.38;43.44;103018.81;5042561;28;20025;-52
2022/04/29 08:29:25;;;;;;;1.05;0.80;;;;;;;18.39;43.43;103020.53;5041897;28;20101;-52
2022/04/29 08:31:51;;;;;;;1.40;0.90;;;;;;;18.38;43.43;103021.53;5042885;28;20029;-51
2022/04/29 08:34:19;;;;;;;1.05;1.00;;;;;;;18.37;43.50;103028.75;5042985;28;20053;-48
2022/04/29 08:36:44;;;;;;;1.33;0.87;;;;;;;18.37;43.38;103028.75;5042439;28;20642;-51
2022/04/29 08:39:09;;;;;;;1.25;1.15;;;;;;;18.37;43.14;103025.19;5042394;28;20297;-47
2022/04/29 08:41:38;;;;;;;0.88;0.88;;;;;;;18.37;43.47;103020.66;5042650;28;20025;-50
2022/04/29 08:44:08;;;;;;;1.10;1.00;;;;;;;18.33;43.40;103013.78;5043337;28;20478;-50
2022/04/29 08:46:34;;;;;;;0.82;0.80;;;;;;;18.37;43.30;103025.19;5046251;28;20026;-51
2022/04/29 08:49:01;;;;;;;1.15;1.05;;;;;;;18.37;43.29;103020.66;5046263;28;20044;-50
2022/04/29 08:51:26;;;;;;;0.95;0.82;;;;;;;18.37;43.49;103019.81;5046494;28;20033;-50
2022/04/29 08:53:52;;;;;;;1.50;1.00;;;;;;;18.37;43.27;103026.06;5046000;28;20068;-50
2022/04/29 08:59:03;;;;;;;1.38;0.90;;;;;;;18.36;43.30;103021.66;5025262;28;20044;-51
2022/04/29 09:01:29;;;;;;;0.90;0.80;;;;;;;18.37;43.37;103023.34;5066948;28;20030;-49
2022/04/29 09:03:54;;;;;;;1.42;1.00;;;;;;;18.38;43.44;103018.81;5044900;28;20557;-49
2022/04/29 09:06:22;;;;;;;1.38;0.80;;;;;;;18.36;43.52;103007.31;5045888;28;20700;-49
2022/04/29 09:08:48;;;;;;;0.60;0.60;;;;;;;18.39;43.17;103007.97;5045595;28;20499;-46
2022/04/29 09:11:25;;;;;;;1.75;0.98;;;;;;;18.40;43.24;103015.06;5045905;28;20044;-52
2022/04/29 09:13:50;;;;;;;0.80;0.80;;;;;;;18.37;43.11;103012.59;5025111;28;20530;-51
2022/04/29 09:16:16;;;;;;;1.17;0.70;;;;;;;18.38;43.10;103011.59;5026144;28;20034;-50
2022/04/29 09:18:51;;;;;;;1.08;0.90;;;;;;;18.42;43.11;103009.53;5044123;28;20033;-50
2022/04/29 09:21:20;;;;;;;0.93;0.85;;;;;;;18.41;43.29;103006.00;5041220;28;20033;-49
2022/04/29 09:23:49;;;;;;;0.90;0.90;;;;;;;18.41;43.19;103010.53;5059811;28;20030;-50
2022/04/29 09:26:22;;;;;;;1.30;1.08;;;;;;;18.42;43.31;103012.25;5029034;28;20018;-48
2022/04/29 09:28:49;;;;;;;0.98;0.93;;;;;;;18.41;43.18;103008.69;5044589;28;20033;-52
2022/04/29 09:31:14;;;;;;;1.00;0.85;;;;;;;18.42;43.15;103006.84;5045509;28;20044;-47
2022/04/29 09:33:40;;;;;;;1.15;0.90;;;;;;;18.42;43.28;103005.00;5045763;28;20025;-48
2022/04/29 09:36:05;;;;;;;1.00;0.77;;;;;;;18.43;43.18;103013.94;5044813;28;20049;-49
2022/04/29 09:41:22;;;;;;;0.93;0.70;;;;;;;18.44;43.04;103002.22;5044918;28;20086;-49
2022/04/29 09:43:47;;;;;;;0.90;0.90;;;;;;;18.43;43.27;103006.72;5044392;28;20025;-48
2022/04/29 09:46:19;;;;;;;0.60;0.60;;;;;;;18.45;43.12;103007.50;5052024;28;20038;-46
2022/04/29 09:49:00;;;;;;;1.05;0.90;;;;;;;18.46;43.18;103011.91;5065325;28;20021;-51
2022/04/29 09:51:41;;;;;;;0.80;0.80;;;;;;;18.47;43.20;103010.06;5045795;28;20056;-50
2022/04/29 09:54:11;;;;;;;1.10;0.77;;;;;;;18.45;43.23;103004.78;5045116;28;20028;-51
2022/04/29 09:56:37;;;;;;;1.73;1.20;;;;;;;18.46;43.26;103006.50;5044259;28;20381;-51
2022/04/29 09:59:03;;;;;;;0.93;0.90;;;;;;;18.47;43.20;103007.38;5043958;28;20061;-51
2022/04/29 10:01:29;;;;;;;0.80;0.80;;;;;;;18.47;43.46;103010.91;5045038;28;20036;-53
2022/04/29 10:03:55;;;;;;;1.25;0.88;;;;;;;18.48;43.04;103004.56;5044832;28;20108;-52
2022/04/29 10:06:22;;;;;;;1.20;1.00;;;;;;;18.49;43.25;103000.91;5044883;28;20026;-52
2022/04/29 10:08:49;;;;;;;0.73;0.70;;;;;;;18.50;43.36;102993.69;5044520;28;20084;-52
2022/04/29 10:11:16;;;;;;;0.80;0.80;;;;;;;18.47;43.25;102996.59;5044546;28;20057;-51
2022/04/29 10:13:41;;;;;;;1.10;1.00;;;;;;;18.48;43.28;102993.81;5042208;28;20021;-52
2022/04/29 10:16:10;;;;;;;0.80;0.80;;;;;;;18.51;43.08;102999.91;5044449;28;20441;-49
2022/04/29 10:21:29;;;;;;;0.80;0.80;;;;;;;18.50;43.29;102990.97;5044745;28;20129;-51
2022/04/29 10:23:54;;;;;;;1.48;0.90;;;;;;;18.50;43.08;102993.69;5044336;28;20126;-50
2022/04/29 10:26:20;;;;;;;1.42;1.00;;;;;;;18.49;43.04;102992.81;5044461;28;20033;-52
2022/04/29 10:28:46;;;;;;;1.10;0.90;;;;;;;18.51;43.18;102983.75;5043436;28;20038;-48
2022/04/29 10:31:21;;;;;;;1.05;0.90;;;;;;;18.52;42.93;102998.94;5043289;28;20025;-50
2022/04/29 10:33:47;;;;;;;0.93;0.77;;;;;;;18.48;43.06;102992.94;5044403;28;20036;-50
2022/04/29 10:36:16;;;;;;;0.82;0.82;;;;;;;18.49;43.25;103000.91;5042761;28;20045;-50
2022/04/29 10:38:46;;;;;;;;;;;;;;;18.45;43.20;103006.63;5044536;28;20021;-48
2022/04/29 10:41:23;;;;;;;0.70;0.70;;;;;;;18.46;43.02;102992.19;5043883;28;19920;-50
2022/04/29 10:43:51;;;;;;;1.00;0.85;;;;;;;18.47;42.98;102988.50;5042951;28;20486;-53
2022/04/29 10:46:20;;;;;;;1.42;0.85;;;;;;;18.47;43.21;102996.59;5051572;28;20382;-52
2022/04/29 10:48:45;;;;;;;0.65;0.65;;;;;;;18.47;43.22;102988.50;5064324;28;20028;-49
2022/04/29 10:51:15;;;;;;;0.63;0.63;;;;;;;18.48;42.94;102987.56;5043412;28;20060;-52
2022/04/29 10:53:41;;;;;;;0.80;0.75;;;;;;;18.48;43.12;102991.09;5042888;28;20025;-49
2022/04/29 10:56:25;;;;;;;0.95;0.82;;;;;;;18.50;43.00;102982.91;5043356;28;20063;-52
2022/04/29 10:58:50;;;;;;;0.80;0.80;;;;;;;18.45;43.32;102975.16;5043017;28;20041;-50
2022/04/29 11:01:27;;;;;;;1.02;0.93;;;;;;;18.51;43.11;102983.75;5043815;28;20040;-50
2022/04/29 11:03:53;;;;;;;0.70;0.70;;;;;;;18.49;43.27;102981.19;5043960;28;20034;-48
2022/04/29 11:06:18;;;;;;;0.82;0.82;;;;;;;18.48;43.26;102972.25;5043446;28;20032;-46
2022/04/29 11:08:44;;;;;;;1.30;0.90;;;;;;;18.50;43.18;102964.03;5043408;28;20033;-49
2022/04/29 11:11:10;;;;;;;1.00;0.90;;;;;;;18.49;43.29;102968.56;5043188;28;20170;-49
2022/04/29 11:13:47;;;;;;;0.80;0.80;;;;;;;18.51;43.00;102976.53;5041699;28;20034;-49
2022/04/29 11:16:16;;;;;;;0.80;0.77;;;;;;;18.52;43.01;102977.38;5043315;28;20025;-49
2022/04/29 11:18:43;;;;;;;1.00;0.90;;;;;;;18.51;43.32;102981.91;5043731;28;20514;-48
2022/04/29 11:26:46;;;;;;;1.10;1.00;;;;;;;18.51;43.23;102970.28;5043098;28;20037;-50
2022/04/29 11:29:12;;;;;;;0.82;0.82;;;;;;;18.48;43.08;102977.63;5042511;28;20541;-47
2022/04/29 11:31:38;;;;;;;0.70;0.70;;;;;;;18.51;43.33;102975.69;5043627;28;20018;-49
2022/04/29 11:34:10;;;;;;;0.90;0.88;;;;;;;18.51;43.49;102968.44;5043344;28;20116;-50
2022/04/29 11:36:37;;;;;;;0.80;0.80;;;;;;;18.47;43.29;102966.97;5043113;28;20072;-51
2022/04/29 11:39:07;;;;;;;0.85;0.80;;;;;;;18.52;43.31;102975.56;5042867;28;20390;-52
2022/04/29 11:41:33;;;;;;;1.23;0.93;;;;;;;18.51;43.09;102968.44;5043102;28;20042;-49
2022/04/29 11:43:58;;;;;;;1.25;0.90;;;;;;;18.52;43.42;102972.00;5037635;28;20029;-46
2022/04/29 11:46:23;;;;;;;0.75;0.75;;;;;;;18.52;43.07;102974.69;5049211;28;20107;-47
2022/04/29 11:48:54;;;;;;;1.08;0.98;;;;;;;18.51;43.26;102975.69;5044603;28;20040;-51